Asahi Maru — JL6613 — position and weather

sailwx.info

Track history (hours):
 
Tides and Currents Weather Stations Pressure Air Temp Water Temp Dewpoint Dewpoint Depression Visibility Wind Speed Wind Dir Waves Ship Positions

Asahi Maru

Last reported at 2018-Apr-26 01:30 UTC. Time now 2018-Apr-26 01:28 UTC.
Position N 35°32' E 139°46'.

Length 105 m; draft 6.5 m.

Type: Tanker. MMSI: 431501701.

Date/timePositionNaut miles runAvg speedWind from/ knotsBaromVisibWave heightAir tempDewpointWater temp
2018-Apr-26 01:30N 35°32' E 139°46'0 0.0
2018-Apr-26 01:00N 35°32' E 139°46'0 0.0
2018-Apr-26 00:30N 35°32' E 139°46'0 0.0
2018-Apr-25 23:57N 35°32' E 139°46'0 0.0
2018-Apr-25 23:30N 35°32' E 139°46'0 0.0
2018-Apr-25 23:00N 35°32' E 139°46'0 0.1
2018-Apr-25 22:24N 35°32' E 139°46'1 3.7
2018-Apr-25 22:01N 35°30' E 139°45'4 7.1
2018-Apr-25 21:31N 35°27' E 139°43'3 6.1
2018-Apr-25 21:00N 35°26' E 139°46'5 9.7
2018-Apr-25 20:31N 35°21' E 139°45'510.6
2018-Apr-25 20:01N 35°16' E 139°46'611.4
2018-Apr-25 19:30N 35°10' E 139°46'612.6
2018-Apr-25 19:00N 35°04' E 139°43'612.1
2018-Apr-25 18:30N 34°59' E 139°41'712.1
2018-Apr-25 17:56N 34°52' E 139°38'3 6.1
2018-Apr-25 17:29N 34°51' E 139°35'713.5
2018-Apr-25 16:59N 34°50' E 139°27'713.7
2018-Apr-25 16:29N 34°48' E 139°19'815.0
2018-Apr-25 15:56N 34°41' E 139°14'615.3
2018-Apr-25 15:31N 34°36' E 139°10'814.5
2018-Apr-25 14:58N 34°33' E 139°01'714.6
2018-Apr-25 14:30N 34°31' E 138°53'714.1
2018-Apr-25 14:00N 34°31' E 138°45'713.6
2018-Apr-25 13:28N 34°31' E 138°36'1113.4
2018-Apr-25 12:40N 34°31' E 138°23'213.6
2018-Apr-25 12:30N 34°31' E 138°20'714.0
2018-Apr-25 12:00N 34°30' E 138°12'713.9
2018-Apr-25 11:28N 34°28' E 138°03'14412.3
2018-Apr-24 23:51N 33°30' E 135°24'2513.4
2018-Apr-24 21:59N 33°48' E 135°04'613.2
2018-Apr-24 21:30N 33°54' E 134°60'612.8
2018-Apr-24 21:00N 33°60' E 134°59'613.0
2018-Apr-24 20:30N 34°06' E 134°59'612.9
2018-Apr-24 20:01N 34°13' E 134°59'611.8
2018-Apr-24 19:31N 34°19' E 134°59'612.2
2018-Apr-24 19:01N 34°25' E 135°00'612.6
2018-Apr-24 18:30N 34°31' E 135°02'510.7
2018-Apr-24 18:01N 34°36' E 135°02'510.5
2018-Apr-24 17:30N 34°36' E 134°56'713.2
2018-Apr-24 17:01N 34°33' E 134°49'713.8
2018-Apr-24 16:30N 34°30' E 134°41'714.0
2018-Apr-24 16:00N 34°28' E 134°33'714.0
2018-Apr-24 15:30N 34°25' E 134°25'713.8
2018-Apr-24 15:00N 34°23' E 134°17'78 2.7
2018-Apr-23 09:50N 34°01' E 132°46'513.8
2018-Apr-23 09:30N 33°57' E 132°43'714.1
2018-Apr-23 09:00N 33°53' E 132°36'1114.2
2018-Apr-23 08:14N 33°46' E 132°26'714.8
2018-Apr-23 07:46N 33°44' E 132°18'514.8
2018-Apr-23 07:28N 33°43' E 132°13'914.2
2018-Apr-23 06:48N 33°42' E 132°01'414.5
2018-Apr-23 06:30N 33°43' E 131°56'714.2
2018-Apr-23 06:00N 33°45' E 131°48'714.2
2018-Apr-23 05:30N 33°46' E 131°40'714.4
2018-Apr-23 05:00N 33°48' E 131°31'714.1
2018-Apr-23 04:30N 33°49' E 131°23'714.1
2018-Apr-23 04:00N 33°51' E 131°15'714.1
2018-Apr-23 03:30N 33°54' E 131°07'714.1
2018-Apr-23 03:00N 33°59' E 131°01'611.7
2018-Apr-23 02:30N 33°54' E 130°56'510.5
2018-Apr-23 02:00N 33°59' E 130°53'714.3
2018-Apr-23 01:30N 34°06' E 130°50'714.5
2018-Apr-23 01:00N 34°13' E 130°49'714.3
2018-Apr-23 00:30N 34°20' E 130°47'713.0
2018-Apr-23 00:00N 34°26' E 130°51'  
2018-Apr-19 10:48N 41°20' E 140°18'510.9
2018-Apr-19 10:21N 41°23' E 140°24'410.6
2018-Apr-19 09:56N 41°25' E 140°29'612.6
2018-Apr-19 09:29N 41°28' E 140°35'612.4
2018-Apr-19 09:00N 41°31' E 140°42'611.9
2018-Apr-19 08:30N 41°34' E 140°49'510.4
2018-Apr-19 08:00N 41°37' E 140°55'5 9.6
2018-Apr-19 07:30N 41°39' E 141°00'612.3
2018-Apr-19 07:01N 41°43' E 141°07'712.9
2018-Apr-19 06:29N 41°47' E 141°14'9 0.4
2018-Apr-18 11:18N 41°56' E 141°14'613.9
2018-Apr-18 10:54N 41°50' E 141°14'813.1
2018-Apr-18 10:16N 41°43' E 141°08'414.2
2018-Apr-18 10:00N 41°41' E 141°04'816.2
2018-Apr-18 09:30N 41°38' E 140°54'817.1
2018-Apr-18 09:00N 41°33' E 140°45'917.2
2018-Apr-18 08:30N 41°28' E 140°36'918.0
2018-Apr-18 08:00N 41°23' E 140°26'  
Track history (hours):
 
Tides and Currents Weather Stations Pressure Air Temp Water Temp Dewpoint Dewpoint Depression Visibility Wind Speed Wind Dir Waves Ship Positions

Asahi Maru

Last reported at 2018-Apr-26 01:30 UTC. Time now 2018-Apr-26 01:28 UTC.
Position N 35°32' E 139°46'.

Length 105 m; draft 6.5 m.

Type: Tanker. MMSI: 431501701.

Date/timePositionNaut miles runAvg speedWind from/ knotsBaromVisibWave heightAir tempDewpointWater temp
2018-Apr-26 01:30N 35°32' E 139°46'0 0.0
2018-Apr-26 01:00N 35°32' E 139°46'0 0.0
2018-Apr-26 00:30N 35°32' E 139°46'0 0.0
2018-Apr-25 23:57N 35°32' E 139°46'0 0.0
2018-Apr-25 23:30N 35°32' E 139°46'0 0.0
2018-Apr-25 23:00N 35°32' E 139°46'0 0.1
2018-Apr-25 22:24N 35°32' E 139°46'1 3.7
2018-Apr-25 22:01N 35°30' E 139°45'4 7.1
2018-Apr-25 21:31N 35°27' E 139°43'3 6.1
2018-Apr-25 21:00N 35°26' E 139°46'5 9.7
2018-Apr-25 20:31N 35°21' E 139°45'510.6
2018-Apr-25 20:01N 35°16' E 139°46'611.4
2018-Apr-25 19:30N 35°10' E 139°46'612.6
2018-Apr-25 19:00N 35°04' E 139°43'612.1
2018-Apr-25 18:30N 34°59' E 139°41'712.1
2018-Apr-25 17:56N 34°52' E 139°38'3 6.1
2018-Apr-25 17:29N 34°51' E 139°35'713.5
2018-Apr-25 16:59N 34°50' E 139°27'713.7
2018-Apr-25 16:29N 34°48' E 139°19'815.0
2018-Apr-25 15:56N 34°41' E 139°14'615.3
2018-Apr-25 15:31N 34°36' E 139°10'814.5
2018-Apr-25 14:58N 34°33' E 139°01'714.6
2018-Apr-25 14:30N 34°31' E 138°53'714.1
2018-Apr-25 14:00N 34°31' E 138°45'713.6
2018-Apr-25 13:28N 34°31' E 138°36'1113.4
2018-Apr-25 12:40N 34°31' E 138°23'213.6
2018-Apr-25 12:30N 34°31' E 138°20'714.0
2018-Apr-25 12:00N 34°30' E 138°12'713.9
2018-Apr-25 11:28N 34°28' E 138°03'14412.3
2018-Apr-24 23:51N 33°30' E 135°24'2513.4
2018-Apr-24 21:59N 33°48' E 135°04'613.2
2018-Apr-24 21:30N 33°54' E 134°60'612.8
2018-Apr-24 21:00N 33°60' E 134°59'613.0
2018-Apr-24 20:30N 34°06' E 134°59'612.9
2018-Apr-24 20:01N 34°13' E 134°59'611.8
2018-Apr-24 19:31N 34°19' E 134°59'612.2
2018-Apr-24 19:01N 34°25' E 135°00'612.6
2018-Apr-24 18:30N 34°31' E 135°02'510.7
2018-Apr-24 18:01N 34°36' E 135°02'510.5
2018-Apr-24 17:30N 34°36' E 134°56'713.2
2018-Apr-24 17:01N 34°33' E 134°49'713.8
2018-Apr-24 16:30N 34°30' E 134°41'714.0
2018-Apr-24 16:00N 34°28' E 134°33'714.0
2018-Apr-24 15:30N 34°25' E 134°25'713.8
2018-Apr-24 15:00N 34°23' E 134°17'78 2.7
2018-Apr-23 09:50N 34°01' E 132°46'513.8
2018-Apr-23 09:30N 33°57' E 132°43'714.1
2018-Apr-23 09:00N 33°53' E 132°36'1114.2
2018-Apr-23 08:14N 33°46' E 132°26'714.8
2018-Apr-23 07:46N 33°44' E 132°18'514.8
2018-Apr-23 07:28N 33°43' E 132°13'914.2
2018-Apr-23 06:48N 33°42' E 132°01'414.5
2018-Apr-23 06:30N 33°43' E 131°56'714.2
2018-Apr-23 06:00N 33°45' E 131°48'714.2
2018-Apr-23 05:30N 33°46' E 131°40'714.4
2018-Apr-23 05:00N 33°48' E 131°31'714.1
2018-Apr-23 04:30N 33°49' E 131°23'714.1
2018-Apr-23 04:00N 33°51' E 131°15'714.1
2018-Apr-23 03:30N 33°54' E 131°07'714.1
2018-Apr-23 03:00N 33°59' E 131°01'611.7
2018-Apr-23 02:30N 33°54' E 130°56'510.5
2018-Apr-23 02:00N 33°59' E 130°53'714.3
2018-Apr-23 01:30N 34°06' E 130°50'714.5
2018-Apr-23 01:00N 34°13' E 130°49'714.3
2018-Apr-23 00:30N 34°20' E 130°47'713.0
2018-Apr-23 00:00N 34°26' E 130°51'  
2018-Apr-19 10:48N 41°20' E 140°18'510.9
2018-Apr-19 10:21N 41°23' E 140°24'410.6
2018-Apr-19 09:56N 41°25' E 140°29'612.6
2018-Apr-19 09:29N 41°28' E 140°35'612.4
2018-Apr-19 09:00N 41°31' E 140°42'611.9
2018-Apr-19 08:30N 41°34' E 140°49'510.4
2018-Apr-19 08:00N 41°37' E 140°55'5 9.6
2018-Apr-19 07:30N 41°39' E 141°00'612.3
2018-Apr-19 07:01N 41°43' E 141°07'712.9
2018-Apr-19 06:29N 41°47' E 141°14'9 0.4
2018-Apr-18 11:18N 41°56' E 141°14'613.9
2018-Apr-18 10:54N 41°50' E 141°14'813.1
2018-Apr-18 10:16N 41°43' E 141°08'414.2
2018-Apr-18 10:00N 41°41' E 141°04'816.2
2018-Apr-18 09:30N 41°38' E 140°54'817.1
2018-Apr-18 09:00N 41°33' E 140°45'917.2
2018-Apr-18 08:30N 41°28' E 140°36'918.0
2018-Apr-18 08:00N 41°23' E 140°26'  

Dump ship's entire track history